createdAt,value
2024-05-09T00:00:22.284Z,9.71
2024-05-09T00:01:15.925Z,9.71
2024-05-09T00:02:15.945Z,9.71
2024-05-09T00:03:15.936Z,9.71
2024-05-09T00:04:15.914Z,9.68
2024-05-09T00:05:15.888Z,9.67
2024-05-09T00:06:15.902Z,9.65
2024-05-09T00:07:15.844Z,9.67
2024-05-09T00:08:15.848Z,9.70
2024-05-09T00:09:15.844Z,9.68
2024-05-09T00:10:25.062Z,9.70
2024-05-09T00:11:15.931Z,9.70
2024-05-09T00:12:15.906Z,9.71
2024-05-09T00:13:15.800Z,9.70
2024-05-09T00:14:15.800Z,9.70
2024-05-09T00:15:15.748Z,9.70
2024-05-09T00:16:15.702Z,9.67
2024-05-09T00:17:15.759Z,9.65
2024-05-09T00:18:15.889Z,9.65
2024-05-09T00:19:15.786Z,9.65
2024-05-09T00:20:20.610Z,9.65
2024-05-09T00:21:15.681Z,9.65
2024-05-09T00:22:15.673Z,9.65
2024-05-09T00:23:15.725Z,9.67
2024-05-09T00:24:15.633Z,9.62
2024-05-09T00:25:15.626Z,9.62
2024-05-09T00:26:15.636Z,9.60
2024-05-09T00:27:15.604Z,9.58
2024-05-09T00:28:15.597Z,9.58
2024-05-09T00:29:15.677Z,9.59
2024-05-09T00:30:24.177Z,9.59
2024-05-09T00:31:15.552Z,9.56
2024-05-09T00:32:15.580Z,9.55
2024-05-09T00:33:15.847Z,9.56
2024-05-09T00:34:15.617Z,9.55
2024-05-09T00:35:15.607Z,9.53
2024-05-09T00:36:15.487Z,9.53
2024-05-09T00:37:15.488Z,9.55
2024-05-09T00:38:15.506Z,9.55
2024-05-09T00:39:15.533Z,9.53
2024-05-09T00:40:22.879Z,9.53
2024-05-09T00:41:18.906Z,9.53
2024-05-09T00:42:15.444Z,9.53
2024-05-09T00:43:15.707Z,9.52
2024-05-09T00:44:15.511Z,9.53
2024-05-09T00:45:15.417Z,9.49
2024-05-09T00:46:15.373Z,9.49
2024-05-09T00:47:15.618Z,9.48
2024-05-09T00:48:17.805Z,9.48
2024-05-09T00:49:15.461Z,9.49
2024-05-09T00:50:19.445Z,9.49
2024-05-09T00:51:15.407Z,9.48
2024-05-09T00:52:15.338Z,9.49
2024-05-09T00:53:15.862Z,9.49
2024-05-09T00:54:15.294Z,9.49
2024-05-09T00:55:15.316Z,9.49
2024-05-09T00:56:15.307Z,9.49
2024-05-09T00:57:15.280Z,9.48
2024-05-09T00:58:15.263Z,9.44
2024-05-09T00:59:15.320Z,9.41
2024-05-09T01:00:26.062Z,9.38
2024-05-09T01:01:15.246Z,9.34
2024-05-09T01:02:15.323Z,9.31
2024-05-09T01:03:15.515Z,9.27
2024-05-09T01:04:15.241Z,9.26
2024-05-09T01:05:15.404Z,9.24
2024-05-09T01:06:15.174Z,9.23
2024-05-09T01:07:15.174Z,9.23
2024-05-09T01:08:15.246Z,9.22
2024-05-09T01:09:15.149Z,9.22
2024-05-09T01:10:21.204Z,9.20
2024-05-09T01:11:15.206Z,9.20
2024-05-09T01:12:15.288Z,9.17
2024-05-09T01:13:15.111Z,9.19
2024-05-09T01:14:15.133Z,9.16
2024-05-09T01:15:15.085Z,9.15
2024-05-09T01:16:15.051Z,9.16
2024-05-09T01:17:15.183Z,9.15
2024-05-09T01:18:15.171Z,9.15
2024-05-09T01:19:15.167Z,9.15
2024-05-09T01:20:20.234Z,9.13
2024-05-09T01:21:15.170Z,9.12
2024-05-09T01:22:15.014Z,9.10
2024-05-09T01:23:16.336Z,9.08
2024-05-09T01:24:14.973Z,9.06
2024-05-09T01:25:14.954Z,9.03
2024-05-09T01:26:15.023Z,9.04
2024-05-09T01:27:14.970Z,9.04
2024-05-09T01:28:14.912Z,9.03
2024-05-09T01:29:14.971Z,9.06
2024-05-09T01:30:20.825Z,9.03
2024-05-09T01:31:14.932Z,9.01
2024-05-09T01:32:15.039Z,9.00
2024-05-09T01:33:15.038Z,9.00
2024-05-09T01:34:14.920Z,9.01
2024-05-09T01:35:14.916Z,9.01
2024-05-09T01:36:14.873Z,9.00
2024-05-09T01:37:14.855Z,9.01
2024-05-09T01:38:14.867Z,8.98
2024-05-09T01:39:14.814Z,8.97
2024-05-09T01:40:18.688Z,8.93
2024-05-09T01:41:14.820Z,8.85
2024-05-09T01:42:14.782Z,8.76
2024-05-09T01:43:14.796Z,8.67
2024-05-09T01:44:14.779Z,8.54
2024-05-09T01:45:14.753Z,8.42
2024-05-09T01:46:14.742Z,8.32
2024-05-09T01:47:14.866Z,8.29
2024-05-09T01:48:14.908Z,8.28
2024-05-09T01:49:14.782Z,8.25
2024-05-09T01:51:14.827Z,8.25
2024-05-09T01:52:14.661Z,8.27
2024-05-09T01:53:15.323Z,8.28
2024-05-09T01:54:14.654Z,8.32
2024-05-09T01:55:14.648Z,8.34
2024-05-09T01:56:14.695Z,8.39
2024-05-09T01:57:14.649Z,8.43
2024-05-09T01:58:14.592Z,8.42
2024-05-09T01:59:14.679Z,8.46
2024-05-09T02:00:22.130Z,8.49
2024-05-09T02:01:14.682Z,8.49
2024-05-09T02:02:14.756Z,8.49
2024-05-09T02:03:16.961Z,8.50
2024-05-09T02:04:14.746Z,8.52
2024-05-09T02:05:14.733Z,8.52
2024-05-09T02:06:14.577Z,8.52
2024-05-09T02:07:14.503Z,8.55
2024-05-09T02:08:14.515Z,8.55
2024-05-09T02:09:14.474Z,8.57
2024-05-09T02:10:20.424Z,8.58
2024-05-09T02:11:14.549Z,8.58
2024-05-09T02:12:14.691Z,8.60
2024-05-09T02:13:14.452Z,8.58
2024-05-09T02:14:14.518Z,8.60
2024-05-09T02:15:14.408Z,8.61
2024-05-09T02:16:14.400Z,8.64
2024-05-09T02:17:14.470Z,8.64
2024-05-09T02:18:14.643Z,8.65
2024-05-09T02:19:14.512Z,8.64
2024-05-09T02:20:22.551Z,8.64
2024-05-09T02:21:14.452Z,8.63
2024-05-09T02:22:14.373Z,8.64
2024-05-09T02:23:14.444Z,8.64
2024-05-09T02:24:14.302Z,8.63
2024-05-09T02:25:14.310Z,8.60
2024-05-09T02:26:14.346Z,8.60
2024-05-09T02:27:14.309Z,8.58
2024-05-09T02:28:14.284Z,8.58
2024-05-09T02:29:14.379Z,8.58
2024-05-09T02:30:22.507Z,8.58
2024-05-09T02:31:14.256Z,8.58
2024-05-09T02:32:14.377Z,8.60
2024-05-09T02:33:14.726Z,8.58
2024-05-09T02:34:14.249Z,8.60
2024-05-09T02:35:14.288Z,8.60
2024-05-09T02:36:14.165Z,8.57
2024-05-09T02:37:14.191Z,8.58
2024-05-09T02:38:14.200Z,8.58
2024-05-09T02:39:14.146Z,8.55
2024-05-09T02:41:39.767Z,8.55
2024-05-09T02:41:45.029Z,8.55
2024-05-09T02:42:45.071Z,8.54
2024-05-09T02:43:45.032Z,8.54
2024-05-09T02:44:45.005Z,8.52
2024-05-09T02:45:44.981Z,8.52
2024-05-09T02:46:45.002Z,8.50
2024-05-09T02:47:45.190Z,8.50
2024-05-09T02:48:45.047Z,8.49
2024-05-09T02:49:45.028Z,8.50
2024-05-09T02:50:45.175Z,8.47
2024-05-09T02:51:44.916Z,8.47
2024-05-09T02:52:44.978Z,8.43
2024-05-09T02:53:44.993Z,8.43
2024-05-09T02:54:44.952Z,8.43
2024-05-09T02:55:44.932Z,8.40
2024-05-09T02:56:44.860Z,8.40
2024-05-09T02:57:44.851Z,8.39
2024-05-09T02:58:44.904Z,8.40
2024-05-09T02:59:44.842Z,8.39
2024-05-09T03:00:44.880Z,8.37
2024-05-09T03:01:44.994Z,8.39
2024-05-09T03:02:44.942Z,8.40
2024-05-09T03:03:44.917Z,8.37
2024-05-09T03:04:44.797Z,8.36
2024-05-09T03:05:45.313Z,8.37
2024-05-09T03:06:44.755Z,8.39
2024-05-09T03:07:44.795Z,8.36
2024-05-09T03:08:44.773Z,8.37
2024-05-09T03:09:44.707Z,8.32
2024-05-09T03:10:44.721Z,8.32
2024-05-09T03:11:44.839Z,8.27
2024-05-09T03:12:44.857Z,8.24
2024-05-09T03:13:44.707Z,8.18
2024-05-09T03:14:44.645Z,8.12
2024-05-09T03:15:45.118Z,8.03
2024-05-09T03:16:44.662Z,7.95
2024-05-09T03:17:44.883Z,7.85
2024-05-09T03:18:44.747Z,7.74
2024-05-09T03:19:44.639Z,7.67
2024-05-09T03:20:45.003Z,7.57
2024-05-09T03:21:44.588Z,7.41
2024-05-09T03:22:44.640Z,7.26
2024-05-09T03:23:44.753Z,7.15
2024-05-09T03:24:44.571Z,7.07
2024-05-09T03:25:44.595Z,7.00
2024-05-09T03:26:44.519Z,6.97
2024-05-09T03:27:44.528Z,6.97
2024-05-09T03:28:44.771Z,6.96
2024-05-09T03:29:44.526Z,6.94
2024-05-09T03:30:44.531Z,6.93
2024-05-09T03:31:44.592Z,6.96
2024-05-09T03:32:44.589Z,6.94
2024-05-09T03:33:44.655Z,6.96
2024-05-09T03:34:44.489Z,6.99
2024-05-09T03:35:44.441Z,7.00
2024-05-09T03:36:44.489Z,7.01
2024-05-09T03:37:44.461Z,7.04
2024-05-09T03:38:44.469Z,7.05
2024-05-09T03:39:44.400Z,7.08
2024-05-09T03:40:44.463Z,7.08
2024-05-09T03:41:44.485Z,7.09
2024-05-09T03:42:44.346Z,7.09
2024-05-09T03:43:44.414Z,7.01
2024-05-09T03:44:44.354Z,6.99
2024-05-09T03:45:44.342Z,6.99
2024-05-09T03:46:44.381Z,7.00
2024-05-09T03:47:44.560Z,7.01
2024-05-09T03:48:44.466Z,7.04
2024-05-09T03:49:44.352Z,7.08
2024-05-09T03:50:44.336Z,7.11
2024-05-09T03:51:44.259Z,7.14
2024-05-09T03:52:44.331Z,7.19
2024-05-09T03:53:44.323Z,7.23
2024-05-09T03:54:44.216Z,7.24
2024-05-09T03:55:44.284Z,7.27
2024-05-09T03:56:44.293Z,7.30
2024-05-09T03:57:44.226Z,7.34
2024-05-09T03:58:44.230Z,7.37
2024-05-09T03:59:44.227Z,7.37
2024-05-09T04:00:44.201Z,7.42
2024-05-09T04:01:44.264Z,7.45
2024-05-09T04:02:44.290Z,7.47
2024-05-09T04:03:44.293Z,7.45
2024-05-09T04:04:44.209Z,7.47
2024-05-09T04:05:44.716Z,7.45
2024-05-09T04:06:44.119Z,7.45
2024-05-09T04:07:44.156Z,7.44
2024-05-09T04:08:44.113Z,7.45
2024-05-09T04:09:44.088Z,7.45
2024-05-09T04:10:44.176Z,7.45
2024-05-09T04:11:44.132Z,7.44
2024-05-09T04:12:44.037Z,7.42
2024-05-09T04:13:44.113Z,7.39
2024-05-09T04:14:44.033Z,7.36
2024-05-09T04:15:44.003Z,7.33
2024-05-09T04:16:44.074Z,7.34
2024-05-09T04:17:44.117Z,7.33
2024-05-09T04:18:44.078Z,7.36
2024-05-09T04:19:44.074Z,7.37
2024-05-09T04:20:43.995Z,7.41
2024-05-09T04:21:43.955Z,7.42
2024-05-09T04:22:43.998Z,7.47
2024-05-09T04:23:43.955Z,7.50
2024-05-09T04:24:43.930Z,7.51
2024-05-09T04:25:44.566Z,7.54
2024-05-09T04:26:43.981Z,7.55
2024-05-09T04:27:43.905Z,7.57
2024-05-09T04:28:43.978Z,7.60
2024-05-09T04:29:43.852Z,7.62
2024-05-09T04:30:43.919Z,7.63
2024-05-09T04:31:43.929Z,7.69
2024-05-09T04:32:44.175Z,7.70
2024-05-09T04:33:44.065Z,7.73
2024-05-09T04:34:43.881Z,7.74
2024-05-09T04:35:44.237Z,7.77
2024-05-09T04:36:44.730Z,7.79
2024-05-09T04:37:43.830Z,7.77
2024-05-09T04:38:43.838Z,7.79
2024-05-09T04:39:43.792Z,7.79
2024-05-09T04:40:43.784Z,7.79
2024-05-09T04:41:43.751Z,7.82
2024-05-09T04:42:43.711Z,7.82
2024-05-09T04:43:43.690Z,7.84
2024-05-09T04:44:43.701Z,7.85
2024-05-09T04:45:43.671Z,7.84
2024-05-09T04:46:43.662Z,7.85
2024-05-09T04:47:43.761Z,7.88
2024-05-09T04:48:43.905Z,7.89
2024-05-09T04:49:43.673Z,7.92
2024-05-09T04:50:43.675Z,7.92
2024-05-09T04:51:43.601Z,7.94
2024-05-09T04:52:43.609Z,7.96
2024-05-09T04:53:43.728Z,8.02
2024-05-09T04:54:43.594Z,8.03
2024-05-09T04:55:43.566Z,8.04
2024-05-09T04:56:43.615Z,8.09
2024-05-09T04:57:43.566Z,8.12
2024-05-09T04:58:43.525Z,8.10
2024-05-09T04:59:43.549Z,8.12
2024-05-09T05:00:43.597Z,8.17
2024-05-09T05:01:43.500Z,8.18
2024-05-09T05:02:43.773Z,8.18
2024-05-09T05:03:43.707Z,8.22
2024-05-09T05:04:43.607Z,8.27
2024-05-09T05:05:44.850Z,8.25
2024-05-09T05:06:43.470Z,8.29
2024-05-09T05:07:43.424Z,8.32
2024-05-09T05:08:43.447Z,8.36
2024-05-09T05:09:43.398Z,8.40
2024-05-09T05:10:43.467Z,8.43
2024-05-09T05:11:43.563Z,8.45
2024-05-09T05:12:43.510Z,8.50
2024-05-09T05:13:43.367Z,8.52
2024-05-09T05:14:43.353Z,8.55
2024-05-09T05:15:43.350Z,8.61
2024-05-09T05:16:43.315Z,8.65
2024-05-09T05:17:43.605Z,8.67
2024-05-09T05:18:43.430Z,8.73
2024-05-09T05:19:43.487Z,8.75
2024-05-09T05:20:43.405Z,8.78
2024-05-09T05:21:43.271Z,8.85
2024-05-09T05:22:43.253Z,8.85
2024-05-09T05:23:43.394Z,8.89
2024-05-09T05:24:43.255Z,8.91
2024-05-09T05:25:43.385Z,8.96
2024-05-09T05:26:43.260Z,8.98
2024-05-09T05:27:43.202Z,9.01
2024-05-09T05:28:43.182Z,9.08
2024-05-09T05:29:43.203Z,9.12
2024-05-09T05:30:43.196Z,9.15
2024-05-09T05:31:43.242Z,9.19
2024-05-09T05:32:43.254Z,9.22
2024-05-09T05:33:43.239Z,9.23
2024-05-09T05:34:43.150Z,9.30
2024-05-09T05:35:43.564Z,9.31
2024-05-09T05:36:43.099Z,9.32
2024-05-09T05:37:43.114Z,9.37
2024-05-09T05:38:43.107Z,9.40
2024-05-09T05:39:43.188Z,9.41
2024-05-09T05:40:43.167Z,9.45
2024-05-09T05:41:43.116Z,9.49
2024-05-09T05:42:43.063Z,9.58
2024-05-09T05:43:43.057Z,9.62
2024-05-09T05:44:43.015Z,9.67
2024-05-09T05:45:43.012Z,9.74
2024-05-09T05:46:43.035Z,9.80
2024-05-09T05:47:43.085Z,9.83
2024-05-09T05:48:43.129Z,9.88
2024-05-09T05:49:42.991Z,9.93
2024-05-09T05:50:43.003Z,9.98
2024-05-09T05:51:42.977Z,10.02
2024-05-09T05:52:42.923Z,10.10
2024-05-09T05:53:43.030Z,10.14
2024-05-09T05:54:42.942Z,10.18
2024-05-09T05:55:42.971Z,10.17
2024-05-09T05:56:42.969Z,10.20
2024-05-09T05:57:42.997Z,10.25
2024-05-09T05:58:42.882Z,10.26
2024-05-09T05:59:42.892Z,10.29
2024-05-09T06:00:43.261Z,10.34
2024-05-09T06:01:42.890Z,10.31
2024-05-09T06:02:43.044Z,10.36
2024-05-09T06:03:43.059Z,10.42
2024-05-09T06:04:42.876Z,10.49
2024-05-09T06:05:42.812Z,10.57
2024-05-09T06:06:42.767Z,10.63
2024-05-09T06:07:42.832Z,10.66
2024-05-09T06:08:42.936Z,10.73
2024-05-09T06:09:43.834Z,10.78
2024-05-09T06:10:42.945Z,10.83
2024-05-09T06:11:42.933Z,10.88
2024-05-09T06:12:42.726Z,10.95
2024-05-09T06:13:42.706Z,11.02
2024-05-09T06:14:42.695Z,11.08
2024-05-09T06:15:43.517Z,11.12
2024-05-09T06:16:42.679Z,11.20
2024-05-09T06:17:42.854Z,11.24
2024-05-09T06:18:42.883Z,11.27
2024-05-09T06:19:42.712Z,11.33
2024-05-09T06:20:43.945Z,11.41
2024-05-09T06:21:42.642Z,11.49
2024-05-09T06:22:42.601Z,11.57
2024-05-09T06:23:42.644Z,11.57
2024-05-09T06:24:42.572Z,11.60
2024-05-09T06:25:43.041Z,11.64
2024-05-09T06:26:43.971Z,11.70
2024-05-09T06:27:42.581Z,11.77
2024-05-09T06:28:42.581Z,11.84
2024-05-09T06:29:42.593Z,11.90
2024-05-09T06:30:43.384Z,11.96
2024-05-09T06:31:42.505Z,12.00
2024-05-09T06:32:42.588Z,12.05
2024-05-09T06:33:42.645Z,12.12
2024-05-09T06:34:42.616Z,12.15
2024-05-09T06:35:42.674Z,12.11
2024-05-09T06:36:42.480Z,12.12
2024-05-09T06:37:42.434Z,12.07
2024-05-09T06:38:42.536Z,12.04
2024-05-09T06:39:42.415Z,12.03
2024-05-09T06:40:43.870Z,12.01
2024-05-09T06:41:42.497Z,11.96
2024-05-09T06:42:42.443Z,11.88
2024-05-09T06:43:42.392Z,11.90
2024-05-09T06:44:42.413Z,11.90
2024-05-09T06:45:42.440Z,11.97
2024-05-09T06:46:42.435Z,12.11
2024-05-09T06:47:42.465Z,12.23
2024-05-09T06:48:42.479Z,12.38
2024-05-09T06:49:42.504Z,12.54
2024-05-09T06:50:42.352Z,12.61
2024-05-09T06:51:42.289Z,12.62
2024-05-09T06:52:42.381Z,12.71
2024-05-09T06:53:42.301Z,12.80
2024-05-09T06:54:42.358Z,12.91
2024-05-09T06:55:42.249Z,12.98
2024-05-09T06:56:42.314Z,13.19
2024-05-09T06:57:43.225Z,13.48
2024-05-09T06:58:42.216Z,13.65
2024-05-09T06:59:42.300Z,13.76
2024-05-09T07:00:42.614Z,13.69
2024-05-09T07:01:42.193Z,13.63
2024-05-09T07:02:42.461Z,13.65
2024-05-09T07:03:42.226Z,13.71
2024-05-09T07:04:42.182Z,13.88
2024-05-09T07:05:42.260Z,14.01
2024-05-09T07:06:42.137Z,14.09
2024-05-09T07:07:42.104Z,13.94
2024-05-09T07:08:42.112Z,13.96
2024-05-09T07:09:42.083Z,13.87
2024-05-09T07:10:42.161Z,13.76
2024-05-09T07:11:42.224Z,13.71
2024-05-09T07:12:42.065Z,13.68
2024-05-09T07:13:42.064Z,13.75
2024-05-09T07:14:42.073Z,13.87
2024-05-09T07:15:42.114Z,13.99
2024-05-09T07:16:42.048Z,14.16
2024-05-09T07:17:42.232Z,14.27
2024-05-09T07:18:42.370Z,14.41
2024-05-09T07:19:42.062Z,14.60
2024-05-09T07:20:42.879Z,14.80
2024-05-09T07:21:41.946Z,14.91
2024-05-09T07:22:41.963Z,15.03
2024-05-09T07:23:45.177Z,15.09
2024-05-09T07:24:41.967Z,15.16
2024-05-09T07:25:42.040Z,15.22
2024-05-09T07:26:42.025Z,15.30
2024-05-09T07:27:41.875Z,15.43
2024-05-09T07:28:41.888Z,15.52
2024-05-09T07:29:41.931Z,15.56
2024-05-09T07:32:58.759Z,15.66
2024-05-09T07:33:04.499Z,15.91
2024-05-09T07:34:04.219Z,15.99
2024-05-09T07:35:04.194Z,16.06
2024-05-09T07:36:04.227Z,16.11
2024-05-09T07:37:04.126Z,16.26
2024-05-09T07:38:04.147Z,16.36
2024-05-09T07:39:04.174Z,16.41
2024-05-09T07:40:05.827Z,16.48
2024-05-09T07:41:04.160Z,16.48
2024-05-09T07:42:04.062Z,16.52
2024-05-09T07:43:04.067Z,16.69
2024-05-09T07:44:04.177Z,16.85
2024-05-09T07:45:20.908Z,16.96
2024-05-09T07:47:03.898Z,17.03
2024-05-09T07:49:44.319Z,17.20
2024-05-09T07:53:14.180Z,17.46
2024-05-09T07:53:46.078Z,18.65
2024-05-09T07:53:57.242Z,19.71
2024-05-09T07:54:52.980Z,20.08
2024-05-09T07:55:53.014Z,20.46
2024-05-09T07:56:53.070Z,20.76
2024-05-09T07:57:52.753Z,20.91
2024-05-09T07:58:52.915Z,21.13
2024-05-09T07:59:52.612Z,21.37
2024-05-09T08:00:52.760Z,21.43
2024-05-09T08:01:52.789Z,21.68
2024-05-09T08:02:52.709Z,21.91
2024-05-09T08:03:52.837Z,22.20
2024-05-09T08:04:52.677Z,22.36
2024-05-09T08:05:52.700Z,22.41
2024-05-09T08:06:52.613Z,22.54
2024-05-09T08:07:52.573Z,22.44
2024-05-09T08:08:52.651Z,22.23
2024-05-09T08:09:52.702Z,22.23
2024-05-09T08:10:52.699Z,22.31
2024-05-09T08:11:52.674Z,22.39
2024-05-09T08:12:52.666Z,22.51
2024-05-09T08:13:52.526Z,22.70
2024-05-09T08:14:52.451Z,22.60
2024-05-09T08:15:52.860Z,22.66
2024-05-09T08:16:52.506Z,22.56
2024-05-09T08:17:52.578Z,22.38
2024-05-09T08:18:52.564Z,22.09
2024-05-09T08:19:52.531Z,22.21
2024-05-09T08:20:52.511Z,22.11
2024-05-09T08:21:52.444Z,21.91
2024-05-09T08:22:52.372Z,21.53
2024-05-09T08:23:52.357Z,21.48
2024-05-09T08:24:52.463Z,21.67
2024-05-09T08:25:52.323Z,21.70
2024-05-09T08:26:52.335Z,21.42
2024-05-09T08:27:52.439Z,21.45
2024-05-09T08:28:52.299Z,21.55
2024-05-09T08:29:52.429Z,21.74
2024-05-09T08:30:52.403Z,21.93
2024-05-09T08:31:52.319Z,22.06
2024-05-09T08:32:52.328Z,22.01
2024-05-09T08:33:52.522Z,22.12
2024-05-09T08:34:52.305Z,22.19
2024-05-09T08:35:52.312Z,22.23
2024-05-09T08:36:52.228Z,22.33
2024-05-09T08:37:52.232Z,22.49
2024-05-09T08:38:52.208Z,22.45
2024-05-09T08:39:52.282Z,22.29
2024-05-09T08:40:52.301Z,22.35
2024-05-09T08:41:52.196Z,22.42
2024-05-09T08:42:52.341Z,22.26
2024-05-09T08:43:52.141Z,22.35
2024-05-09T08:44:52.133Z,22.41
2024-05-09T08:45:52.180Z,22.44
2024-05-09T08:46:52.124Z,22.46
2024-05-09T08:47:52.427Z,22.27
2024-05-09T08:48:52.225Z,22.04
2024-05-09T08:49:52.162Z,21.99
2024-05-09T08:50:52.222Z,21.90
2024-05-09T08:51:52.095Z,22.01
2024-05-09T08:52:52.053Z,22.11
2024-05-09T08:53:52.022Z,22.23
2024-05-09T08:54:52.073Z,22.12
2024-05-09T08:55:52.113Z,22.27
2024-05-09T08:56:52.023Z,22.30
2024-05-09T08:57:52.107Z,22.27
2024-05-09T08:58:51.980Z,22.21
2024-05-09T08:59:51.977Z,22.09
2024-05-09T09:00:52.070Z,22.04
2024-05-09T09:01:52.049Z,22.11
2024-05-09T09:02:51.968Z,22.23
2024-05-09T09:03:52.016Z,22.20
2024-05-09T09:04:52.850Z,22.24
2024-05-09T09:05:52.048Z,22.23
2024-05-09T09:06:53.245Z,22.24
2024-05-09T09:07:51.919Z,22.30
2024-05-09T09:08:51.884Z,22.35
2024-05-09T09:09:51.954Z,22.46
2024-05-09T09:10:51.870Z,22.54
2024-05-09T09:11:51.915Z,22.59
2024-05-09T09:12:51.967Z,22.54
2024-05-09T09:13:51.770Z,22.60
2024-05-09T09:14:51.772Z,22.69
2024-05-09T09:15:51.788Z,22.76
2024-05-09T09:16:51.743Z,22.82
2024-05-09T09:17:51.875Z,22.97
2024-05-09T09:18:51.992Z,23.11
2024-05-09T09:19:51.737Z,23.23
2024-05-09T09:20:51.683Z,23.35
2024-05-09T09:21:51.692Z,23.06
2024-05-09T09:22:51.656Z,23.06
2024-05-09T09:23:51.691Z,23.11
2024-05-09T09:24:51.844Z,23.11
2024-05-09T09:25:51.609Z,22.94
2024-05-09T09:26:51.615Z,22.81
2024-05-09T09:27:51.724Z,22.75
2024-05-09T09:28:51.579Z,22.78
2024-05-09T09:29:51.602Z,22.91
2024-05-09T09:30:51.698Z,23.06
2024-05-09T09:31:51.545Z,23.06
2024-05-09T09:32:51.621Z,23.00
2024-05-09T09:33:51.666Z,22.93
2024-05-09T09:34:51.586Z,22.79
2024-05-09T09:35:51.490Z,22.79
2024-05-09T09:36:51.568Z,22.82
2024-05-09T09:37:51.489Z,22.84
2024-05-09T09:38:51.446Z,22.84
2024-05-09T09:39:51.479Z,22.96
2024-05-09T09:40:51.528Z,23.12
2024-05-09T09:41:51.425Z,23.32
2024-05-09T09:42:51.475Z,23.47
2024-05-09T09:43:51.426Z,23.44
2024-05-09T09:45:01.782Z,23.53
2024-05-09T09:45:51.948Z,23.47
2024-05-09T09:46:51.418Z,23.42
2024-05-09T09:47:51.630Z,23.47
2024-05-09T09:48:51.424Z,23.63
2024-05-09T09:49:51.375Z,23.56
2024-05-09T09:50:51.364Z,23.64
2024-05-09T09:51:51.389Z,23.52
2024-05-09T09:52:51.313Z,23.68
2024-05-09T09:53:51.306Z,23.78
2024-05-09T09:54:51.283Z,23.90
2024-05-09T09:55:51.294Z,24.08
2024-05-09T09:56:51.316Z,24.14
2024-05-09T09:57:51.281Z,24.33
2024-05-09T09:58:51.234Z,24.26
2024-05-09T09:59:51.237Z,24.18
2024-05-09T10:00:51.410Z,24.00
2024-05-09T10:01:51.253Z,23.92
2024-05-09T10:02:51.248Z,24.04
2024-05-09T10:03:51.393Z,24.19
2024-05-09T10:04:51.310Z,24.33
2024-05-09T10:05:51.245Z,24.44
2024-05-09T10:06:51.219Z,24.45
2024-05-09T10:07:51.184Z,24.48
2024-05-09T10:08:51.116Z,24.56
2024-05-09T10:09:51.182Z,24.66
2024-05-09T10:10:51.234Z,24.52
2024-05-09T10:11:52.420Z,24.44
2024-05-09T10:12:51.124Z,24.44
2024-05-09T10:13:51.108Z,24.21
2024-05-09T10:14:51.050Z,23.81
2024-05-09T10:15:51.289Z,23.44
2024-05-09T10:16:51.076Z,23.38
2024-05-09T10:17:51.213Z,23.32
2024-05-09T10:18:51.324Z,23.29
2024-05-09T10:19:51.092Z,23.53
2024-05-09T10:20:51.003Z,23.35
2024-05-09T10:21:51.021Z,23.12
2024-05-09T10:22:50.985Z,23.18
2024-05-09T10:23:50.981Z,23.32
2024-05-09T10:24:50.993Z,23.32
2024-05-09T10:25:50.939Z,23.44
2024-05-09T10:26:50.924Z,23.56
2024-05-09T10:27:51.164Z,23.39
2024-05-09T10:28:51.027Z,23.38
2024-05-09T10:29:50.905Z,23.54
2024-05-09T10:30:50.930Z,23.72
2024-05-09T10:31:50.918Z,23.97
2024-05-09T10:32:50.956Z,24.23
2024-05-09T10:33:52.133Z,24.41
2024-05-09T10:34:50.864Z,24.49
2024-05-09T10:35:50.831Z,24.55
2024-05-09T10:36:50.881Z,24.48
2024-05-09T10:37:50.828Z,24.66
2024-05-09T10:38:50.841Z,24.87
2024-05-09T10:39:50.815Z,24.97
2024-05-09T10:40:50.793Z,24.75
2024-05-09T10:41:50.795Z,24.56
2024-05-09T10:42:50.829Z,24.63
2024-05-09T10:43:50.783Z,24.63
2024-05-09T10:44:50.754Z,24.48
2024-05-09T10:45:50.825Z,24.51
2024-05-09T10:46:50.750Z,24.67
2024-05-09T10:47:50.921Z,24.79
2024-05-09T10:48:50.826Z,24.89
2024-05-09T10:49:50.789Z,24.64
2024-05-09T10:50:50.666Z,24.56
2024-05-09T10:51:50.809Z,24.45
2024-05-09T10:52:50.662Z,24.41
2024-05-09T10:53:50.693Z,24.37
2024-05-09T10:54:50.674Z,24.29
2024-05-09T10:55:50.619Z,24.34
2024-05-09T10:56:50.627Z,24.46
2024-05-09T10:57:50.645Z,24.39
2024-05-09T10:58:50.594Z,24.00
2024-05-09T10:59:50.573Z,24.06
2024-05-09T11:00:50.677Z,24.19
2024-05-09T11:01:50.668Z,24.29
2024-05-09T11:02:50.664Z,24.42
2024-05-09T11:03:50.821Z,24.37
2024-05-09T11:04:50.698Z,24.09
2024-05-09T11:05:50.580Z,23.94
2024-05-09T11:06:50.523Z,23.96
2024-05-09T11:07:50.550Z,24.11
2024-05-09T11:08:50.514Z,24.31
2024-05-09T11:09:50.600Z,24.51
2024-05-09T11:10:50.595Z,24.75
2024-05-09T11:11:50.532Z,24.99
2024-05-09T11:12:50.469Z,25.19
2024-05-09T11:13:50.459Z,25.29
2024-05-09T11:14:50.417Z,25.35
2024-05-09T11:15:50.468Z,25.31
2024-05-09T11:16:50.464Z,25.38
2024-05-09T11:17:50.598Z,25.38
2024-05-09T11:18:50.513Z,25.49
2024-05-09T11:19:50.470Z,25.64
2024-05-09T11:20:50.440Z,25.83
2024-05-09T11:21:50.436Z,25.90
2024-05-09T11:22:50.335Z,26.00
2024-05-09T11:23:50.327Z,26.12
2024-05-09T11:24:50.373Z,26.20
2024-05-09T11:25:50.328Z,26.19
2024-05-09T11:26:50.297Z,26.27
2024-05-09T11:27:50.412Z,26.29
2024-05-09T11:28:50.456Z,26.42
2024-05-09T11:29:50.270Z,26.09
2024-05-09T11:30:50.362Z,25.51
2024-05-09T11:31:50.295Z,25.29
2024-05-09T11:32:50.267Z,25.39
2024-05-09T11:33:50.398Z,25.64
2024-05-09T11:34:50.223Z,25.90
2024-05-09T11:35:50.199Z,26.11
2024-05-09T11:36:50.277Z,26.35
2024-05-09T11:37:50.169Z,26.51
2024-05-09T11:38:50.199Z,26.66
2024-05-09T11:39:50.173Z,26.76
2024-05-09T11:40:50.207Z,26.83
2024-05-09T11:41:50.134Z,26.81
2024-05-09T11:42:53.005Z,26.87
2024-05-09T11:43:50.116Z,26.97
2024-05-09T11:44:50.114Z,26.97
2024-05-09T11:45:50.158Z,26.94
2024-05-09T11:46:50.436Z,26.94
2024-05-09T11:47:50.175Z,26.86
2024-05-09T11:48:50.224Z,26.66
2024-05-09T11:49:50.102Z,26.31
2024-05-09T11:50:50.058Z,26.13
2024-05-09T11:51:50.107Z,25.85
2024-05-09T11:52:50.015Z,25.86
2024-05-09T11:53:49.993Z,25.97
2024-05-09T11:54:50.049Z,26.00
2024-05-09T11:55:50.072Z,26.01
2024-05-09T11:56:49.969Z,26.13
2024-05-09T11:57:50.018Z,26.27
2024-05-09T11:58:49.947Z,26.32
2024-05-09T11:59:49.932Z,26.47
2024-05-09T12:00:50.262Z,26.47
2024-05-09T12:01:50.186Z,26.49
2024-05-09T12:02:50.028Z,26.42
2024-05-09T12:03:50.105Z,26.47
2024-05-09T12:04:49.997Z,26.47
2024-05-09T12:05:50.116Z,26.34
2024-05-09T12:06:49.963Z,26.34
2024-05-09T12:07:49.892Z,26.47
2024-05-09T12:08:49.862Z,26.44
2024-05-09T12:09:49.864Z,26.39
2024-05-09T12:10:50.047Z,26.19
2024-05-09T12:11:49.841Z,25.69
2024-05-09T12:12:49.859Z,25.54
2024-05-09T12:13:49.817Z,25.74
2024-05-09T12:14:49.773Z,25.54
2024-05-09T12:15:49.784Z,25.56
2024-05-09T12:16:49.846Z,25.76
2024-05-09T12:17:50.829Z,25.93
2024-05-09T12:18:49.956Z,26.09
2024-05-09T12:19:49.750Z,26.39
2024-05-09T12:20:49.714Z,26.50
2024-05-09T12:21:49.767Z,26.61
2024-05-09T12:22:49.694Z,26.47
2024-05-09T12:23:49.696Z,26.32
2024-05-09T12:24:49.709Z,26.28
2024-05-09T12:25:49.686Z,26.16
2024-05-09T12:26:49.653Z,26.01
2024-05-09T12:27:49.682Z,25.78
2024-05-09T12:28:49.634Z,25.81
2024-05-09T12:29:49.615Z,25.66
2024-05-09T12:30:49.648Z,25.35
2024-05-09T12:31:49.662Z,25.20
2024-05-09T12:32:49.862Z,25.05
2024-05-09T12:33:49.695Z,25.09
2024-05-09T12:34:49.577Z,25.27
2024-05-09T12:35:51.085Z,25.39
2024-05-09T12:36:49.565Z,25.41
2024-05-09T12:37:49.545Z,25.41
2024-05-09T12:38:49.527Z,25.44
2024-05-09T12:39:49.598Z,25.51
2024-05-09T12:40:49.634Z,25.44
2024-05-09T12:41:49.483Z,25.57
2024-05-09T12:42:49.574Z,25.79
2024-05-09T12:43:49.485Z,25.79
2024-05-09T12:44:49.494Z,25.75
2024-05-09T12:45:49.504Z,25.69
2024-05-09T12:46:49.422Z,25.59
2024-05-09T12:47:49.545Z,25.51
2024-05-09T12:48:49.688Z,25.41
2024-05-09T12:49:49.440Z,25.57
2024-05-09T12:50:49.678Z,25.66
2024-05-09T12:51:49.423Z,25.85
2024-05-09T12:52:49.372Z,25.97
2024-05-09T12:53:49.378Z,26.21
2024-05-09T12:54:49.392Z,25.96
2024-05-09T12:55:56.631Z,25.93
2024-05-09T12:56:49.350Z,25.94
2024-05-09T12:57:49.359Z,25.91
2024-05-09T12:58:49.313Z,25.94
2024-05-09T12:59:49.282Z,25.94
2024-05-09T13:00:49.574Z,26.04
2024-05-09T13:01:49.352Z,26.17
2024-05-09T13:02:49.322Z,26.00
2024-05-09T13:03:49.514Z,26.04
2024-05-09T13:04:49.369Z,26.32
2024-05-09T13:05:49.478Z,26.46
2024-05-09T13:06:49.395Z,26.53
2024-05-09T13:07:49.206Z,26.66
2024-05-09T13:08:49.205Z,26.76
2024-05-09T13:09:49.189Z,26.91